createdAt,value
2023-09-26T00:01:12.251Z,1.87
2023-09-26T00:05:13.975Z,1.93
2023-09-26T00:09:15.690Z,1.80
2023-09-26T00:13:17.464Z,1.90
2023-09-26T00:17:20.508Z,1.83
2023-09-26T00:21:21.946Z,1.93
2023-09-26T00:25:24.219Z,2.00
2023-09-26T00:29:26.095Z,2.00
2023-09-26T00:33:28.934Z,1.80
2023-09-26T00:37:30.566Z,2.00
2023-09-26T00:41:32.185Z,2.30
2023-09-26T00:45:33.917Z,2.10
2023-09-26T00:49:37.241Z,2.17
2023-09-26T00:53:40.512Z,2.33
2023-09-26T00:57:42.966Z,1.93
2023-09-26T01:01:44.954Z,2.47
2023-09-26T01:05:48.301Z,2.30
2023-09-26T01:09:50.894Z,2.40
2023-09-26T01:13:52.702Z,2.37
2023-09-26T01:17:54.247Z,2.10
2023-09-26T01:21:57.139Z,2.90
2023-09-26T01:26:00.280Z,2.57
2023-09-26T01:30:01.834Z,2.70
2023-09-26T01:34:05.123Z,2.40
2023-09-26T01:38:06.807Z,3.20
2023-09-26T01:42:09.627Z,3.00
2023-09-26T01:46:12.349Z,2.60
2023-09-26T01:50:15.193Z,2.70
2023-09-26T01:54:16.695Z,2.60
2023-09-26T01:58:20.030Z,2.80
2023-09-26T02:02:21.756Z,2.73
2023-09-26T02:06:23.365Z,2.80
2023-09-26T02:10:25.130Z,3.27
2023-09-26T02:14:29.452Z,3.20
2023-09-26T02:18:31.240Z,2.90
2023-09-26T02:22:34.264Z,2.97
2023-09-26T02:26:36.006Z,3.00
2023-09-26T02:30:38.821Z,3.00
2023-09-26T02:34:40.347Z,3.00
2023-09-26T02:38:41.850Z,2.90
2023-09-26T02:42:44.151Z,2.60
2023-09-26T02:46:47.339Z,3.00
2023-09-26T02:50:49.080Z,3.13
2023-09-26T02:54:50.901Z,3.00
2023-09-26T02:58:53.381Z,3.50
2023-09-26T03:02:56.170Z,2.87
2023-09-26T03:06:58.404Z,3.27
2023-09-26T03:11:00.301Z,3.23
2023-09-26T03:15:01.911Z,3.37
2023-09-26T03:19:05.506Z,3.97
2023-09-26T03:23:07.284Z,3.33
2023-09-26T03:27:08.722Z,3.50
2023-09-26T03:31:10.805Z,3.00
2023-09-26T03:35:13.900Z,2.90
2023-09-26T03:39:15.540Z,3.17
2023-09-26T03:43:17.048Z,2.67
2023-09-26T03:47:18.621Z,2.57
2023-09-26T03:51:21.603Z,2.73
2023-09-26T03:55:23.949Z,2.50
2023-09-26T03:59:25.504Z,2.33
2023-09-26T04:03:28.261Z,2.70
2023-09-26T04:07:31.461Z,2.40
2023-09-26T04:11:33.077Z,2.90
2023-09-26T04:15:37.762Z,2.77
2023-09-26T04:19:39.413Z,2.57
2023-09-26T04:23:42.877Z,3.07
2023-09-26T04:27:44.310Z,2.33
2023-09-26T04:31:46.335Z,2.73
2023-09-26T04:35:56.106Z,2.83
2023-09-26T04:39:59.744Z,2.60
2023-09-26T04:44:01.205Z,2.63
2023-09-26T04:48:03.322Z,2.70
2023-09-26T04:52:06.393Z,2.90
2023-09-26T04:56:10.239Z,2.80
2023-09-26T05:00:13.574Z,2.50
2023-09-26T05:04:15.547Z,2.67
2023-09-26T05:08:17.516Z,3.00
2023-09-26T05:12:20.629Z,3.10
2023-09-26T05:16:22.417Z,3.00
2023-09-26T05:20:24.124Z,3.43
2023-09-26T05:24:25.575Z,3.30
2023-09-26T05:28:29.212Z,2.90
2023-09-26T05:32:31.743Z,2.93
2023-09-26T05:36:33.531Z,2.93
2023-09-26T05:40:35.060Z,3.30
2023-09-26T05:44:38.380Z,2.90
2023-09-26T05:48:40.827Z,3.77
2023-09-26T05:52:42.539Z,3.67
2023-09-26T05:56:43.978Z,3.90
2023-09-26T06:00:48.582Z,4.20
2023-09-26T06:04:50.135Z,3.90
2023-09-26T06:08:53.077Z,3.60
2023-09-26T06:12:56.472Z,3.00
2023-09-26T06:16:59.963Z,2.93
2023-09-26T06:21:04.219Z,3.20
2023-09-26T06:25:06.345Z,3.17
2023-09-26T06:29:07.833Z,3.13
2023-09-26T06:33:13.333Z,3.97
2023-09-26T06:37:15.234Z,3.27
2023-09-26T06:41:17.762Z,3.57
2023-09-26T06:45:19.516Z,3.60
2023-09-26T06:49:22.575Z,3.77
2023-09-26T06:53:24.114Z,3.13
2023-09-26T06:57:25.608Z,3.47
2023-09-26T07:01:27.303Z,3.33
2023-09-26T07:05:30.225Z,3.40
2023-09-26T07:09:31.965Z,3.10
2023-09-26T07:13:47.915Z,3.50
2023-09-26T07:17:55.770Z,3.03
2023-09-26T07:21:59.023Z,3.40
2023-09-26T07:26:12.047Z,2.83
2023-09-26T07:30:15.943Z,3.30
2023-09-26T07:34:17.688Z,3.33
2023-09-26T07:38:20.835Z,2.90
2023-09-26T07:42:22.676Z,3.10
2023-09-26T07:46:24.289Z,2.87
2023-09-26T07:50:25.963Z,3.17
2023-09-26T07:54:28.803Z,2.67
2023-09-26T07:58:30.305Z,3.17
2023-09-26T08:02:31.879Z,2.97
2023-09-26T08:06:33.618Z,3.00
2023-09-26T08:10:38.586Z,2.80
2023-09-26T08:14:40.070Z,3.03
2023-09-26T08:18:42.923Z,2.60
2023-09-26T08:22:44.700Z,3.27
2023-09-26T08:26:51.085Z,2.80
2023-09-26T08:30:52.927Z,2.80
2023-09-26T08:34:56.669Z,2.67
2023-09-26T08:38:58.160Z,3.10
2023-09-26T08:43:01.271Z,3.00
2023-09-26T08:47:03.279Z,3.50
2023-09-26T08:51:05.159Z,3.50
2023-09-26T08:55:07.439Z,3.30
2023-09-26T08:59:10.853Z,3.30
2023-09-26T09:03:13.844Z,3.60
2023-09-26T09:07:15.919Z,3.40
2023-09-26T09:11:32.244Z,3.80
2023-09-26T09:15:35.133Z,4.10
2023-09-26T09:19:45.192Z,4.23
2023-09-26T09:23:47.231Z,3.77
2023-09-26T09:27:51.079Z,3.53
2023-09-26T09:31:54.241Z,3.53
2023-09-26T09:35:56.978Z,3.83
2023-09-26T09:39:59.254Z,3.57
2023-09-26T09:44:00.792Z,3.30
2023-09-26T09:48:04.918Z,3.40
2023-09-26T09:52:10.229Z,3.33
2023-09-26T09:56:14.628Z,3.27
2023-09-26T10:00:17.344Z,3.50
2023-09-26T10:04:21.655Z,3.17
2023-09-26T10:08:24.424Z,3.03
2023-09-26T10:12:31.135Z,2.60
2023-09-26T10:16:37.468Z,3.05
2023-09-26T10:20:52.030Z,2.97
2023-09-26T10:24:55.546Z,3.00
2023-09-26T10:29:01.605Z,2.78
2023-09-26T10:33:03.278Z,2.70
2023-09-26T10:37:08.894Z,2.60
2023-09-26T10:41:10.401Z,3.05
2023-09-26T10:45:12.633Z,2.70
2023-09-26T10:49:14.389Z,2.30
2023-09-26T10:53:18.653Z,2.80
2023-09-26T10:57:20.347Z,2.97
2023-09-26T11:01:37.257Z,2.70
2023-09-26T11:05:39.213Z,2.50
2023-09-26T11:09:43.750Z,2.15
2023-09-26T11:13:45.514Z,2.00
2023-09-26T11:17:50.008Z,2.22
2023-09-26T11:21:51.760Z,2.10
2023-09-26T11:25:54.928Z,2.05
2023-09-26T11:29:56.620Z,2.08
2023-09-26T11:33:58.924Z,2.20
2023-09-26T11:38:00.578Z,2.20
2023-09-26T11:42:04.744Z,2.70
2023-09-26T11:46:06.971Z,2.30
2023-09-26T11:50:09.726Z,2.30
2023-09-26T11:54:11.948Z,2.50
2023-09-26T11:58:16.265Z,2.22
2023-09-26T12:02:18.030Z,2.15
2023-09-26T12:06:19.572Z,2.50
2023-09-26T12:10:22.984Z,2.33
2023-09-26T12:14:25.790Z,2.10
2023-09-26T12:18:27.288Z,2.10
2023-09-26T12:22:29.097Z,1.85
2023-09-26T12:26:32.289Z,1.80
2023-09-26T12:30:35.174Z,1.83
2023-09-26T12:34:37.252Z,2.00
2023-09-26T12:38:39.898Z,2.00
2023-09-26T12:42:42.056Z,1.90
2023-09-26T12:46:44.883Z,1.90
2023-09-26T12:50:46.739Z,2.03
2023-09-26T12:54:49.140Z,1.90
2023-09-26T12:58:50.616Z,2.40
2023-09-26T13:02:53.748Z,2.10
2023-09-26T13:06:55.353Z,2.00
2023-09-26T13:10:56.935Z,2.00
2023-09-26T13:14:58.852Z,2.10
2023-09-26T13:19:02.000Z,1.90
2023-09-26T13:23:03.658Z,2.00
2023-09-26T13:27:05.731Z,2.05
2023-09-26T13:31:08.480Z,2.10
2023-09-26T13:35:11.418Z,2.00
2023-09-26T13:39:12.910Z,2.23
2023-09-26T13:43:14.352Z,1.90
2023-09-26T13:47:16.379Z,1.73
2023-09-26T13:51:20.342Z,2.00
2023-09-26T13:55:21.872Z,1.83
2023-09-26T13:59:23.532Z,2.00
2023-09-26T14:03:25.702Z,1.90
2023-09-26T14:07:28.782Z,1.77
2023-09-26T14:11:30.326Z,2.00
2023-09-26T14:15:31.870Z,1.80
2023-09-26T14:19:34.067Z,1.90
2023-09-26T14:23:37.092Z,1.80
2023-09-26T14:27:39.018Z,1.70
2023-09-26T14:31:41.855Z,1.93
2023-09-26T14:35:44.410Z,2.20
2023-09-26T14:39:47.303Z,1.80
2023-09-26T14:43:49.115Z,2.00
2023-09-26T14:47:50.726Z,2.00
2023-09-26T14:51:52.460Z,1.90
2023-09-26T14:55:55.444Z,1.80
2023-09-26T14:59:57.242Z,1.97
2023-09-26T15:03:58.773Z,1.80
2023-09-26T15:08:00.305Z,1.90
2023-09-26T15:12:03.156Z,1.70
2023-09-26T15:16:05.954Z,1.67
2023-09-26T15:20:08.400Z,1.70
2023-09-26T15:24:09.918Z,1.80
2023-09-26T15:28:14.119Z,1.90
2023-09-26T15:32:15.615Z,1.90
2023-09-26T15:36:17.270Z,1.63
2023-09-26T15:40:18.917Z,1.70
2023-09-26T15:44:21.847Z,1.90
2023-09-26T15:48:23.393Z,1.83
2023-09-26T15:52:24.928Z,2.00
2023-09-26T15:56:28.822Z,3.10
2023-09-26T16:00:32.246Z,2.17
2023-09-26T16:04:33.845Z,1.93
2023-09-26T16:08:35.735Z,2.03
2023-09-26T16:12:42.971Z,1.60
2023-09-26T16:16:50.144Z,1.80
2023-09-26T16:20:51.900Z,1.70
2023-09-26T16:24:53.598Z,1.83
2023-09-26T16:28:55.386Z,2.00
2023-09-26T16:32:58.703Z,2.00
2023-09-26T16:37:00.439Z,1.90
2023-09-26T16:41:02.001Z,1.87
2023-09-26T16:45:04.613Z,1.90
2023-09-26T16:49:07.461Z,2.00
2023-09-26T16:53:08.972Z,2.07
2023-09-26T16:57:10.432Z,2.10
2023-09-26T17:01:13.552Z,2.00
2023-09-26T17:05:18.757Z,2.00
2023-09-26T17:09:20.474Z,2.53
2023-09-26T17:13:21.959Z,2.10
2023-09-26T17:17:23.477Z,2.10
2023-09-26T17:21:26.805Z,2.23
2023-09-26T17:25:28.540Z,1.90
2023-09-26T17:29:30.303Z,2.07
2023-09-26T17:33:31.853Z,2.30
2023-09-26T17:37:35.577Z,2.67
2023-09-26T17:41:37.069Z,2.50
2023-09-26T17:45:38.628Z,2.10
2023-09-26T17:49:40.406Z,2.50
2023-09-26T17:53:43.527Z,2.23
2023-09-26T17:57:45.003Z,2.50
2023-09-26T18:01:46.848Z,2.40
2023-09-26T18:05:48.621Z,2.40
2023-09-26T18:09:51.595Z,2.20
2023-09-26T18:13:53.157Z,2.23
2023-09-26T18:17:55.358Z,2.50
2023-09-26T18:21:56.862Z,2.13
2023-09-26T18:25:59.885Z,2.00
2023-09-26T18:30:01.620Z,2.53
2023-09-26T18:34:03.382Z,1.93
2023-09-26T18:38:06.548Z,2.23
2023-09-26T18:42:09.412Z,2.10
2023-09-26T18:46:11.002Z,2.00
2023-09-26T18:50:12.693Z,2.13
2023-09-26T18:54:14.220Z,2.43
2023-09-26T18:58:17.296Z,1.93
2023-09-26T19:02:19.292Z,1.90
2023-09-26T19:06:20.880Z,2.20
2023-09-26T19:10:22.600Z,1.80
2023-09-26T19:14:25.772Z,2.00
2023-09-26T19:18:27.548Z,2.00
2023-09-26T19:22:29.034Z,2.13
2023-09-26T19:26:30.684Z,2.03
2023-09-26T19:30:33.802Z,2.20
2023-09-26T19:34:35.386Z,2.10
2023-09-26T19:38:36.931Z,2.17
2023-09-26T19:42:38.421Z,2.30
2023-09-26T19:46:43.009Z,2.13
2023-09-26T19:50:45.603Z,2.10
2023-09-26T19:54:47.288Z,2.20
2023-09-26T19:58:49.146Z,2.10
2023-09-26T20:02:52.313Z,2.50
2023-09-26T20:06:54.880Z,2.17
2023-09-26T20:10:56.362Z,2.20
2023-09-26T20:14:58.895Z,1.80
2023-09-26T20:19:01.727Z,1.97
2023-09-26T20:23:03.273Z,2.03
2023-09-26T20:27:05.048Z,2.10
2023-09-26T20:31:12.831Z,2.10
2023-09-26T20:35:16.203Z,2.03
2023-09-26T20:39:18.161Z,1.97
2023-09-26T20:43:20.180Z,2.20
2023-09-26T20:47:21.925Z,2.20
2023-09-26T20:51:26.212Z,2.00
2023-09-26T20:55:27.696Z,2.30
2023-09-26T20:59:29.458Z,2.27
2023-09-26T21:03:31.112Z,2.27
2023-09-26T21:07:34.339Z,2.40
2023-09-26T21:11:35.817Z,1.93
2023-09-26T21:15:37.406Z,1.87
2023-09-26T21:19:38.879Z,1.93
2023-09-26T21:23:41.665Z,1.90
2023-09-26T21:27:43.179Z,2.23
2023-09-26T21:31:44.916Z,2.53
2023-09-26T21:35:46.451Z,2.07
2023-09-26T21:39:49.618Z,2.10
2023-09-26T21:43:51.441Z,2.50
2023-09-26T21:47:53.029Z,2.10
2023-09-26T21:51:54.867Z,2.10
2023-09-26T21:55:58.394Z,2.43
2023-09-26T21:59:59.914Z,2.30
2023-09-26T22:04:01.382Z,2.10
2023-09-26T22:08:02.896Z,2.33
2023-09-26T22:12:06.545Z,2.30
2023-09-26T22:16:08.741Z,2.20
2023-09-26T22:20:12.712Z,2.30
2023-09-26T22:24:14.232Z,2.33
2023-09-26T22:28:17.241Z,2.07
2023-09-26T22:32:18.960Z,2.00
2023-09-26T22:36:20.585Z,2.00
2023-09-26T22:40:24.423Z,2.03
2023-09-26T22:44:27.314Z,2.33
2023-09-26T22:48:28.910Z,2.20
2023-09-26T22:52:30.595Z,2.10
2023-09-26T22:56:32.385Z,2.27
2023-09-26T23:00:35.498Z,2.27
2023-09-26T23:04:37.233Z,2.10
2023-09-26T23:08:39.249Z,2.20
2023-09-26T23:12:40.728Z,2.20
2023-09-26T23:16:43.810Z,2.30
2023-09-26T23:20:45.565Z,2.20
2023-09-26T23:24:47.151Z,2.20
2023-09-26T23:28:49.178Z,2.10
2023-09-26T23:32:53.591Z,2.50
2023-09-26T23:36:55.071Z,2.10
2023-09-26T23:40:56.856Z,2.60
2023-09-26T23:44:58.789Z,2.23
2023-09-26T23:49:01.866Z,2.50
2023-09-26T23:53:03.783Z,2.00
2023-09-26T23:57:05.490Z,2.30
